createdAt,value
2019-03-19T00:00:34.846Z,1.00
2019-03-19T00:06:32.566Z,1.27
2019-03-19T00:09:13.601Z,1.27
2019-03-19T00:11:54.359Z,1.47
2019-03-19T00:17:22.819Z,1.50
2019-03-19T00:20:03.509Z,1.13
2019-03-19T00:28:47.855Z,1.93
2019-03-19T00:31:28.741Z,1.93
2019-03-19T00:34:09.790Z,2.60
2019-03-19T00:36:50.433Z,2.40
2019-03-19T00:42:39.014Z,2.90
2019-03-19T00:45:19.406Z,3.33
2019-03-19T00:48:00.510Z,3.50
2019-03-19T00:50:41.198Z,3.50
2019-03-19T01:00:13.868Z,2.70
2019-03-19T01:09:31.478Z,2.50
2019-03-19T01:12:13.586Z,2.73
2019-03-19T01:15:13.709Z,2.10
2019-03-19T01:30:30.678Z,1.63
2019-03-19T01:33:14.965Z,1.53
2019-03-19T01:38:43.834Z,2.40
2019-03-19T01:41:25.735Z,2.00
2019-03-19T01:46:54.199Z,1.60
2019-03-19T01:49:54.001Z,1.40
2019-03-19T01:55:38.474Z,1.30
2019-03-19T02:04:10.443Z,1.20
2019-03-19T02:07:09.942Z,1.90
2019-03-19T02:15:56.468Z,1.80
2019-03-19T02:18:37.308Z,1.93
2019-03-19T02:30:23.529Z,2.20
2019-03-19T02:33:04.530Z,2.17
2019-03-19T02:35:45.435Z,2.80
2019-03-19T02:41:31.850Z,2.40
2019-03-19T02:44:16.315Z,3.07
2019-03-19T02:46:57.344Z,3.63
2019-03-19T02:49:38.077Z,3.13
2019-03-19T02:55:27.785Z,3.10
2019-03-19T03:01:12.759Z,2.53
2019-03-19T03:07:17.288Z,2.30
2019-03-19T03:12:46.917Z,3.00
2019-03-19T03:18:32.570Z,2.87
2019-03-19T03:21:13.389Z,2.83
2019-03-19T03:23:53.982Z,2.90
2019-03-19T03:29:57.347Z,2.70
2019-03-19T03:35:29.927Z,2.93
2019-03-19T03:47:43.481Z,2.97
2019-03-19T03:50:43.353Z,2.90
2019-03-19T03:53:43.331Z,2.60
2019-03-19T03:56:42.877Z,2.83
2019-03-19T04:02:57.515Z,2.83
2019-03-19T04:05:38.479Z,2.77
2019-03-19T04:14:29.795Z,2.57
2019-03-19T04:17:10.604Z,2.60
2019-03-19T04:19:52.483Z,2.63
2019-03-19T04:26:12.064Z,2.70
2019-03-19T04:28:53.102Z,2.80
2019-03-19T04:34:58.398Z,2.83
2019-03-19T04:37:51.304Z,3.40
2019-03-19T04:46:40.184Z,2.17
2019-03-19T04:52:38.670Z,2.90
2019-03-19T04:55:19.216Z,2.23
2019-03-19T04:58:19.420Z,2.40
2019-03-19T05:01:19.006Z,2.70
2019-03-19T05:19:22.903Z,3.83
2019-03-19T05:22:25.475Z,4.00
2019-03-19T05:25:06.658Z,3.93
2019-03-19T05:28:06.473Z,4.00
2019-03-19T05:30:50.061Z,3.20
2019-03-19T05:33:30.990Z,3.93
2019-03-19T05:36:11.792Z,3.40
2019-03-19T05:41:59.979Z,3.80
2019-03-19T05:44:40.128Z,2.83
2019-03-19T05:47:20.899Z,3.03
2019-03-19T05:50:20.610Z,3.47
2019-03-19T05:56:06.819Z,3.00
2019-03-19T06:05:07.863Z,3.83
2019-03-19T06:07:48.737Z,3.40
2019-03-19T06:13:16.636Z,2.97
2019-03-19T06:15:57.600Z,3.83
2019-03-19T06:18:38.330Z,3.30
2019-03-19T06:21:31.522Z,3.40
2019-03-19T06:27:10.650Z,2.97
2019-03-19T06:32:35.538Z,2.90
2019-03-19T06:47:46.453Z,3.87
2019-03-19T06:50:46.610Z,3.63
2019-03-19T07:11:51.671Z,3.60
2019-03-19T07:20:53.762Z,2.90
2019-03-19T07:23:53.569Z,2.97
2019-03-19T07:29:51.368Z,2.23
2019-03-19T07:35:21.865Z,2.00
2019-03-19T07:38:21.709Z,2.00
2019-03-19T07:41:06.057Z,3.10
2019-03-19T07:47:15.325Z,2.43
2019-03-19T07:53:00.355Z,1.93
2019-03-19T08:01:55.426Z,2.40
2019-03-19T08:04:35.916Z,2.43
2019-03-19T08:10:52.533Z,2.43
2019-03-19T08:20:03.566Z,1.87
2019-03-19T08:35:26.484Z,2.10
2019-03-19T08:38:07.462Z,2.20
2019-03-19T08:40:48.006Z,2.50
2019-03-19T08:43:29.162Z,2.10
2019-03-19T08:46:30.370Z,2.17
2019-03-19T08:55:43.167Z,2.50
2019-03-19T08:58:24.114Z,2.90
2019-03-19T09:04:10.120Z,2.83
2019-03-19T09:19:37.471Z,2.83
2019-03-19T09:22:40.641Z,2.70
2019-03-19T09:28:25.074Z,2.57
2019-03-19T09:31:24.575Z,1.77
2019-03-19T09:40:34.830Z,1.33
2019-03-19T09:43:34.519Z,1.20
2019-03-19T09:52:26.328Z,2.23
2019-03-19T10:10:31.302Z,1.77
2019-03-19T10:13:15.204Z,1.93
2019-03-19T10:22:34.550Z,2.47
2019-03-19T10:25:34.269Z,2.10
2019-03-19T10:37:39.645Z,2.50
2019-03-19T10:40:20.130Z,2.50
2019-03-19T10:45:48.581Z,2.20
2019-03-19T10:48:29.473Z,2.13
2019-03-19T10:54:15.603Z,1.70
2019-03-19T10:59:49.017Z,1.83
2019-03-19T11:02:26.579Z,1.80
2019-03-19T11:05:07.148Z,1.60
2019-03-19T11:11:06.355Z,1.60
2019-03-19T11:17:25.775Z,1.47
2019-03-19T11:23:19.788Z,1.87
2019-03-19T11:26:00.759Z,1.47
2019-03-19T11:31:29.709Z,1.70
2019-03-19T11:36:58.661Z,1.10
2019-03-19T11:49:00.880Z,1.50
2019-03-19T11:51:55.025Z,1.70
2019-03-19T11:57:53.738Z,1.10
2019-03-19T12:09:47.955Z,1.60
2019-03-19T12:15:33.157Z,1.10
2019-03-19T12:21:17.909Z,1.60
2019-03-19T12:27:01.276Z,2.40
2019-03-19T12:35:40.362Z,2.00
2019-03-19T12:47:36.406Z,1.10
2019-03-19T12:55:46.610Z,0.90
2019-03-19T13:01:36.672Z,0.80
2019-03-19T13:04:17.591Z,1.27
2019-03-19T13:06:58.609Z,1.20
2019-03-19T13:09:38.841Z,1.23
2019-03-19T13:15:42.987Z,1.20
2019-03-19T13:18:43.079Z,1.33
2019-03-19T13:21:24.079Z,0.90
2019-03-19T13:24:04.746Z,0.90
2019-03-19T13:26:45.599Z,0.60
2019-03-19T13:29:26.379Z,0.93
2019-03-19T13:35:14.812Z,1.00
2019-03-19T13:37:55.847Z,1.70
2019-03-19T13:40:55.624Z,1.50
2019-03-19T13:43:36.655Z,1.10
2019-03-19T13:49:22.473Z,1.00
2019-03-19T13:54:50.892Z,1.20
2019-03-19T14:00:55.584Z,1.20
2019-03-19T14:03:32.872Z,0.93
2019-03-19T14:06:13.544Z,1.20
2019-03-19T14:08:54.518Z,1.20
2019-03-19T14:14:41.816Z,1.57
2019-03-19T14:23:14.722Z,1.13
2019-03-19T14:25:55.673Z,1.60
2019-03-19T14:28:36.726Z,1.13
2019-03-19T14:31:16.864Z,1.00
2019-03-19T14:33:57.980Z,1.23
2019-03-19T14:36:38.834Z,1.37
2019-03-19T14:39:19.384Z,1.20
2019-03-19T14:42:00.346Z,1.63
2019-03-19T14:47:46.724Z,1.03
2019-03-19T14:50:27.631Z,1.53
2019-03-19T14:55:56.234Z,1.80
2019-03-19T14:58:36.740Z,1.33
2019-03-19T15:04:11.968Z,1.37
2019-03-19T15:06:52.552Z,1.70
2019-03-19T15:12:23.043Z,1.57
2019-03-19T15:15:04.182Z,1.23
2019-03-19T15:23:18.903Z,1.80
2019-03-19T15:26:00.645Z,1.77
2019-03-19T15:28:41.645Z,1.53
2019-03-19T15:31:29.867Z,1.63
2019-03-19T15:36:49.867Z,1.70
2019-03-19T15:42:48.388Z,1.43
2019-03-19T15:45:29.348Z,1.67
2019-03-19T15:54:11.631Z,1.67
2019-03-19T15:56:52.780Z,1.63
2019-03-19T16:02:17.273Z,1.70
2019-03-19T16:07:45.992Z,1.43
2019-03-19T16:13:14.580Z,1.33
2019-03-19T16:18:42.833Z,1.40
2019-03-19T16:24:03.991Z,1.60
2019-03-19T16:29:28.469Z,1.37
2019-03-19T16:32:09.059Z,1.40
2019-03-19T16:35:09.415Z,1.33
2019-03-19T16:37:50.491Z,1.50
2019-03-19T16:46:20.658Z,1.33
2019-03-19T16:49:01.604Z,1.90
2019-03-19T16:54:26.203Z,1.40
2019-03-19T16:59:50.836Z,1.60
2019-03-19T17:05:28.972Z,1.70
2019-03-19T17:08:10.014Z,1.10
2019-03-19T17:13:57.940Z,1.50
2019-03-19T17:19:25.852Z,1.70
2019-03-19T17:24:55.117Z,1.47
2019-03-19T17:30:19.915Z,1.47
2019-03-19T17:39:02.739Z,1.33
2019-03-19T17:56:56.352Z,1.40
2019-03-19T18:02:34.916Z,1.63
2019-03-19T18:05:15.759Z,1.60
2019-03-19T18:14:19.138Z,1.37
2019-03-19T18:17:19.002Z,1.20
2019-03-19T18:23:05.599Z,1.30
2019-03-19T18:26:09.072Z,1.50
2019-03-19T18:40:31.031Z,1.50
2019-03-19T18:45:51.235Z,1.60
2019-03-19T18:51:19.698Z,1.30
2019-03-19T18:57:16.845Z,1.57
2019-03-19T18:59:57.465Z,1.70
2019-03-19T19:02:57.737Z,1.77
2019-03-19T19:05:57.163Z,2.37
2019-03-19T19:08:37.950Z,1.77
2019-03-19T19:11:18.933Z,2.17
2019-03-19T19:17:18.440Z,1.47
2019-03-19T19:19:59.607Z,2.00
2019-03-19T19:22:59.651Z,1.87
2019-03-19T19:26:00.005Z,1.97
2019-03-19T19:31:47.835Z,2.67
2019-03-19T19:40:34.810Z,1.97
2019-03-19T19:43:15.551Z,2.03
2019-03-19T19:49:09.463Z,1.77
2019-03-19T19:51:51.043Z,1.83
2019-03-19T19:57:38.588Z,2.43
2019-03-19T20:00:38.060Z,1.93
2019-03-19T20:03:18.823Z,2.70
2019-03-19T20:09:15.606Z,1.63
2019-03-19T20:11:56.575Z,2.00
2019-03-19T20:23:15.422Z,2.50
2019-03-19T20:25:56.281Z,2.00
2019-03-19T20:31:43.145Z,2.10
2019-03-19T20:37:10.682Z,2.50
2019-03-19T20:46:02.849Z,2.83
2019-03-19T20:48:43.459Z,2.20
2019-03-19T20:54:12.678Z,2.20
2019-03-19T21:02:45.597Z,3.30
2019-03-19T21:05:32.987Z,2.80
2019-03-19T21:08:22.451Z,2.97
2019-03-19T21:11:02.649Z,2.87
2019-03-19T21:13:45.861Z,3.10
2019-03-19T21:19:05.275Z,2.70
2019-03-19T21:21:46.294Z,3.07
2019-03-19T21:24:28.159Z,2.57
2019-03-19T21:29:58.649Z,2.57
2019-03-19T21:35:27.080Z,2.97
2019-03-19T21:41:15.812Z,2.63
2019-03-19T21:50:08.139Z,2.30
2019-03-19T22:14:23.179Z,2.70
2019-03-19T22:23:32.853Z,2.30
2019-03-19T22:26:33.074Z,2.50
2019-03-19T22:35:12.949Z,2.80
2019-03-19T22:47:19.495Z,2.90
2019-03-19T22:50:00.443Z,2.70
2019-03-19T22:55:47.413Z,3.00
2019-03-19T23:02:03.575Z,2.50
2019-03-19T23:07:54.934Z,2.53
2019-03-19T23:10:42.744Z,2.70
2019-03-19T23:13:30.537Z,2.63
2019-03-19T23:16:36.353Z,2.60
2019-03-19T23:38:14.488Z,2.67
2019-03-19T23:53:14.724Z,2.27
